createdAt,value
2022-12-17T00:00:03.798Z,97115.90
2022-12-17T00:02:52.294Z,97119.41
2022-12-17T00:05:40.565Z,97114.20
2022-12-17T00:08:27.822Z,97108.39
2022-12-17T00:11:16.978Z,97113.52
2022-12-17T00:14:03.930Z,97117.34
2022-12-17T00:16:50.892Z,97116.17
2022-12-17T00:19:38.442Z,97119.94
2022-12-17T00:22:25.258Z,97118.13
2022-12-17T00:25:12.023Z,97122.45
2022-12-17T00:27:58.361Z,97121.08
2022-12-17T00:30:44.959Z,97117.52
2022-12-17T00:33:32.219Z,97118.84
2022-12-17T00:36:18.990Z,97116.02
2022-12-17T00:39:05.825Z,97109.33
2022-12-17T00:41:52.719Z,97104.67
2022-12-17T00:44:39.411Z,97095.96
2022-12-17T00:47:26.325Z,97091.16
2022-12-17T00:50:14.957Z,97096.45
2022-12-17T00:53:06.609Z,97092.98
2022-12-17T00:55:56.224Z,97082.81
2022-12-17T00:58:43.809Z,97085.18
2022-12-17T01:01:30.811Z,97081.23
2022-12-17T01:04:18.515Z,97078.71
2022-12-17T01:07:04.876Z,97085.34
2022-12-17T01:09:51.322Z,97088.77
2022-12-17T01:12:38.628Z,97099.47
2022-12-17T01:15:25.455Z,97097.48
2022-12-17T01:18:12.272Z,97096.62
2022-12-17T01:20:58.868Z,97090.86
2022-12-17T01:23:45.934Z,97091.14
2022-12-17T01:26:33.633Z,97086.08
2022-12-17T01:29:20.194Z,97091.33
2022-12-17T01:32:09.789Z,97101.64
2022-12-17T01:34:56.627Z,97095.05
2022-12-17T01:37:43.131Z,97088.29
2022-12-17T01:40:29.895Z,97079.17
2022-12-17T01:43:29.825Z,97077.10
2022-12-17T01:46:16.775Z,97076.56
2022-12-17T01:49:06.715Z,97083.29
2022-12-17T01:51:54.661Z,97089.04
2022-12-17T01:54:41.091Z,97097.21
2022-12-17T01:57:28.340Z,97106.86
2022-12-17T02:00:20.017Z,97108.54
2022-12-17T02:03:06.737Z,97105.77
2022-12-17T02:06:00.412Z,97091.16
2022-12-17T02:09:17.607Z,97077.61
2022-12-17T02:12:18.925Z,97075.02
2022-12-17T02:15:13.310Z,97070.36
2022-12-17T02:18:06.074Z,97072.65
2022-12-17T02:21:03.727Z,97067.30
2022-12-17T02:23:56.904Z,97068.06
2022-12-17T02:26:55.347Z,97074.02
2022-12-17T02:29:46.144Z,97067.89
2022-12-17T02:32:33.810Z,97064.75
2022-12-17T02:35:23.326Z,97063.70
2022-12-17T02:38:10.360Z,97063.23
2022-12-17T02:40:58.710Z,97060.27
2022-12-17T02:43:46.442Z,97056.64
2022-12-17T02:46:34.465Z,97059.65
2022-12-17T02:49:21.122Z,97061.52
2022-12-17T02:52:09.136Z,97061.45
2022-12-17T02:54:55.682Z,97058.70
2022-12-17T02:57:44.112Z,97057.19
2022-12-17T03:00:32.266Z,97045.95
2022-12-17T03:03:19.124Z,97030.74
2022-12-17T03:06:06.539Z,97031.44
2022-12-17T03:08:53.375Z,97031.29
2022-12-17T03:11:40.071Z,97031.91
2022-12-17T03:14:26.844Z,97037.20
2022-12-17T03:17:13.602Z,97039.73
2022-12-17T03:20:00.248Z,97047.23
2022-12-17T03:22:46.973Z,97043.02
2022-12-17T03:25:33.994Z,97038.96
2022-12-17T03:28:29.899Z,97040.42
2022-12-17T03:31:17.669Z,97037.60
2022-12-17T03:34:05.102Z,97039.59
2022-12-17T03:36:52.174Z,97039.59
2022-12-17T03:39:40.512Z,97037.06
2022-12-17T03:42:27.345Z,97032.15
2022-12-17T03:45:14.108Z,97036.58
2022-12-17T03:48:00.698Z,97028.69
2022-12-17T03:50:47.416Z,97033.68
2022-12-17T03:53:34.613Z,97031.65
2022-12-17T03:56:21.290Z,97028.71
2022-12-17T03:59:07.760Z,97024.73
2022-12-17T04:01:54.664Z,97019.34
2022-12-17T04:04:41.179Z,97009.42
2022-12-17T04:07:27.485Z,97008.67
2022-12-17T04:10:14.542Z,97005.65
2022-12-17T04:13:01.174Z,96997.86
2022-12-17T04:15:47.832Z,96998.80
2022-12-17T04:18:34.553Z,96997.89
2022-12-17T04:21:21.360Z,97004.94
2022-12-17T04:24:08.068Z,97009.31
2022-12-17T04:26:54.895Z,97015.45
2022-12-17T04:29:43.423Z,97026.64
2022-12-17T04:32:34.914Z,97032.86
2022-12-17T04:35:21.909Z,97030.81
2022-12-17T04:38:08.911Z,97036.02
2022-12-17T04:40:55.598Z,97041.60
2022-12-17T04:43:42.106Z,97048.48
2022-12-17T04:46:32.289Z,97052.61
2022-12-17T04:49:19.094Z,97056.42
2022-12-17T04:52:05.968Z,97057.89
2022-12-17T04:54:52.592Z,97062.86
2022-12-17T04:57:39.002Z,97067.14
2022-12-17T05:00:26.403Z,97066.14
2022-12-17T05:03:12.745Z,97060.88
2022-12-17T05:06:01.458Z,97062.55
2022-12-17T05:08:51.614Z,97061.95
2022-12-17T05:11:47.309Z,97058.13
2022-12-17T05:14:34.152Z,97051.34
2022-12-17T05:17:21.102Z,97052.40
2022-12-17T05:20:07.936Z,97050.65
2022-12-17T05:22:56.903Z,97051.36
2022-12-17T05:25:43.895Z,97044.40
2022-12-17T05:28:32.676Z,97036.09
2022-12-17T05:31:19.502Z,97045.80
2022-12-17T05:34:06.078Z,97055.58
2022-12-17T05:36:53.026Z,97059.92
2022-12-17T05:39:59.231Z,97050.91
2022-12-17T05:42:45.636Z,97041.89
2022-12-17T05:45:32.085Z,97037.61
2022-12-17T05:48:18.723Z,97039.73
2022-12-17T05:51:11.292Z,97035.38
2022-12-17T05:53:57.840Z,97029.85
2022-12-17T05:56:44.483Z,97029.85
2022-12-17T05:59:31.354Z,97027.94
2022-12-17T06:02:17.867Z,97020.38
2022-12-17T06:05:04.753Z,97017.23
2022-12-17T06:07:51.281Z,97023.19
2022-12-17T06:10:37.890Z,97028.86
2022-12-17T06:13:24.614Z,97040.23
2022-12-17T06:16:12.069Z,97046.59
2022-12-17T06:18:58.483Z,97051.48
2022-12-17T06:21:45.431Z,97047.33
2022-12-17T06:24:32.245Z,97039.23
2022-12-17T06:27:19.190Z,97034.02
2022-12-17T06:30:25.668Z,97018.36
2022-12-17T06:33:25.009Z,97015.45
2022-12-17T06:36:19.700Z,97012.16
2022-12-17T06:39:08.493Z,97011.02
2022-12-17T06:42:00.558Z,97021.71
2022-12-17T06:44:51.076Z,97022.70
2022-12-17T06:47:37.901Z,97023.08
2022-12-17T06:50:25.549Z,97022.63
2022-12-17T06:53:23.848Z,97024.01
2022-12-17T06:56:11.311Z,97036.39
2022-12-17T06:58:58.003Z,97051.06
2022-12-17T07:01:45.248Z,97060.46
2022-12-17T07:04:32.492Z,97060.54
2022-12-17T07:07:19.198Z,97062.67
2022-12-17T07:10:12.114Z,97062.29
2022-12-17T07:13:00.341Z,97062.59
2022-12-17T07:15:47.093Z,97066.03
2022-12-17T07:18:33.607Z,97076.66
2022-12-17T07:21:21.220Z,97086.05
2022-12-17T07:24:08.015Z,97097.91
2022-12-17T07:26:54.536Z,97096.14
2022-12-17T07:29:41.450Z,97098.21
2022-12-17T07:32:28.512Z,97097.15
2022-12-17T07:35:15.041Z,97088.98
2022-12-17T07:38:01.681Z,97081.27
2022-12-17T07:40:48.290Z,97081.05
2022-12-17T07:43:35.407Z,97090.83
2022-12-17T07:46:22.516Z,97085.71
2022-12-17T07:49:09.180Z,97062.34
2022-12-17T07:51:57.146Z,97086.73
2022-12-17T07:54:43.948Z,97098.20
2022-12-17T07:57:30.590Z,97111.42
2022-12-17T08:00:16.999Z,97118.84
2022-12-17T08:03:03.804Z,97131.45
2022-12-17T08:05:51.289Z,97141.99
2022-12-17T08:08:40.415Z,97146.27
2022-12-17T08:11:27.009Z,97155.22
2022-12-17T08:14:13.666Z,97166.08
2022-12-17T08:17:00.274Z,97171.42
2022-12-17T08:19:47.297Z,97179.29
2022-12-17T08:22:34.226Z,97188.98
2022-12-17T08:25:20.705Z,97196.98
2022-12-17T08:28:48.932Z,97195.91
2022-12-17T08:31:28.024Z,97191.09
2022-12-17T08:34:14.880Z,97190.61
2022-12-17T08:37:01.394Z,97196.80
2022-12-17T08:39:47.968Z,97207.33
2022-12-17T08:42:34.706Z,97206.70
2022-12-17T08:45:21.214Z,97205.31
2022-12-17T08:48:07.501Z,97207.20
2022-12-17T08:50:54.135Z,97209.02
2022-12-17T08:53:40.911Z,97215.83
2022-12-17T08:56:27.486Z,97230.36
2022-12-17T08:59:14.271Z,97233.10
2022-12-17T09:02:01.384Z,97234.48
2022-12-17T09:04:48.213Z,97238.45
2022-12-17T09:07:35.161Z,97241.36
2022-12-17T09:10:22.552Z,97248.63
2022-12-17T09:13:09.205Z,97253.90
2022-12-17T09:15:55.660Z,97257.20
2022-12-17T09:18:42.221Z,97260.87
2022-12-17T09:21:31.180Z,97264.16
2022-12-17T09:24:17.816Z,97271.05
2022-12-17T09:27:04.908Z,97272.80
2022-12-17T09:29:51.692Z,97273.02
2022-12-17T09:32:38.435Z,97273.86
2022-12-17T09:35:25.045Z,97284.11
2022-12-17T09:38:13.480Z,97285.56
2022-12-17T09:41:07.180Z,97289.75
2022-12-17T09:44:19.874Z,97301.30
2022-12-17T09:47:36.219Z,97304.73
2022-12-17T09:50:27.652Z,97303.29
2022-12-17T09:53:14.155Z,97301.60
2022-12-17T09:56:07.359Z,97304.34
2022-12-17T09:58:57.379Z,97311.32
2022-12-17T10:01:50.106Z,97316.45
2022-12-17T10:04:52.231Z,97321.20
2022-12-17T10:07:43.238Z,97320.83
2022-12-17T10:10:41.458Z,97326.11
2022-12-17T10:13:37.786Z,97325.73
2022-12-17T10:16:39.863Z,97331.55
2022-12-17T10:19:34.639Z,97331.88
2022-12-17T10:22:29.696Z,97329.52
2022-12-17T10:25:16.187Z,97329.59
2022-12-17T10:28:03.089Z,97330.43
2022-12-17T10:30:50.567Z,97325.91
2022-12-17T10:33:39.815Z,97321.19
2022-12-17T10:36:40.958Z,97330.66
2022-12-17T10:39:41.428Z,97336.62
2022-12-17T10:42:57.598Z,97339.14
2022-12-17T10:45:53.636Z,97338.69
2022-12-17T10:48:50.603Z,97341.66
2022-12-17T10:51:42.286Z,97346.93
2022-12-17T10:54:50.388Z,97355.80
2022-12-17T10:57:43.254Z,97365.13
2022-12-17T11:00:35.820Z,97364.29
2022-12-17T11:03:23.070Z,97366.43
2022-12-17T11:06:13.758Z,97369.41
2022-12-17T11:09:00.852Z,97369.34
2022-12-17T11:11:50.369Z,97374.84
2022-12-17T11:14:37.204Z,97378.51
2022-12-17T11:17:32.528Z,97384.25
2022-12-17T11:20:38.758Z,97389.84
2022-12-17T11:23:36.472Z,97388.38
2022-12-17T11:26:33.243Z,97388.08
2022-12-17T11:29:24.534Z,97393.05
2022-12-17T11:32:37.803Z,97401.62
2022-12-17T11:35:28.935Z,97402.83
2022-12-17T11:38:58.978Z,97411.11
2022-12-17T11:42:11.010Z,97429.54
2022-12-17T11:45:21.160Z,97445.20
2022-12-17T11:48:16.367Z,97453.00
2022-12-17T11:51:32.772Z,97479.29
2022-12-17T11:54:29.637Z,97495.84
2022-12-17T11:57:46.069Z,97502.04
2022-12-17T12:00:38.670Z,97506.27
2022-12-17T12:04:03.503Z,97508.29
2022-12-17T12:07:22.229Z,97516.52
2022-12-17T12:10:19.964Z,97525.82
2022-12-17T12:13:19.630Z,97536.89
2022-12-17T12:16:45.173Z,97540.21
2022-12-17T12:20:07.198Z,97548.27
2022-12-17T12:23:06.899Z,97559.41
2022-12-17T12:26:04.333Z,97568.46
2022-12-17T12:29:04.536Z,97578.08
2022-12-17T12:32:05.391Z,97586.42
2022-12-17T12:34:55.909Z,97595.56
2022-12-17T12:37:43.167Z,97603.14
2022-12-17T12:40:42.012Z,97612.02
2022-12-17T12:43:50.476Z,97625.54
2022-12-17T12:46:56.990Z,97642.98
2022-12-17T12:49:56.013Z,97656.54
2022-12-17T12:52:44.560Z,97666.55
2022-12-17T12:55:31.695Z,97676.13
2022-12-17T12:58:23.924Z,97679.94
2022-12-17T13:01:13.385Z,97682.09
2022-12-17T13:04:03.219Z,97680.94
2022-12-17T13:06:41.908Z,97688.45
2022-12-17T13:09:16.055Z,97699.41
2022-12-17T13:11:48.130Z,97698.77
2022-12-17T13:14:28.631Z,97705.45
2022-12-17T13:17:02.600Z,97711.11
2022-12-17T13:19:33.603Z,97720.45
2022-12-17T13:22:23.447Z,97728.50
2022-12-17T13:25:10.068Z,97739.23
2022-12-17T13:27:40.591Z,97744.48
2022-12-17T13:30:17.651Z,97756.11
2022-12-17T13:33:07.084Z,97763.94
2022-12-17T13:35:41.141Z,97765.63
2022-12-17T13:38:40.993Z,97772.30
2022-12-17T13:41:15.876Z,97775.09
2022-12-17T13:43:45.478Z,97779.52
2022-12-17T13:46:22.945Z,97789.39
2022-12-17T13:48:58.588Z,97793.36
2022-12-17T13:51:30.142Z,97801.54
2022-12-17T13:54:00.761Z,97804.08
2022-12-17T13:56:31.471Z,97807.26
2022-12-17T13:59:07.954Z,97819.10
2022-12-17T14:01:46.552Z,97824.39
2022-12-17T14:04:27.357Z,97826.08
2022-12-17T14:06:59.340Z,97827.73
2022-12-17T14:09:40.803Z,97828.83
2022-12-17T14:12:24.063Z,97835.45
2022-12-17T14:15:08.444Z,97844.43
2022-12-17T14:17:44.955Z,97845.70
2022-12-17T14:20:18.681Z,97846.77
2022-12-17T14:22:51.775Z,97853.23
2022-12-17T14:25:23.689Z,97859.86
2022-12-17T14:27:56.517Z,97870.38
2022-12-17T14:30:46.249Z,97878.23
2022-12-17T14:33:29.947Z,97888.95
2022-12-17T14:36:19.497Z,97897.58
2022-12-17T14:38:55.036Z,97902.67
2022-12-17T14:41:46.378Z,97910.70
2022-12-17T14:44:25.178Z,97919.48
2022-12-17T14:47:18.378Z,97922.52
2022-12-17T14:49:58.802Z,97929.23
2022-12-17T14:52:39.152Z,97941.34
2022-12-17T14:55:25.763Z,97951.41
2022-12-17T14:58:06.256Z,97952.94
2022-12-17T15:00:38.277Z,97949.19
2022-12-17T15:03:15.894Z,97949.51
2022-12-17T15:05:49.046Z,97948.45
2022-12-17T15:08:17.873Z,97954.70
2022-12-17T15:10:45.922Z,97959.83
2022-12-17T15:13:14.324Z,97964.18
2022-12-17T15:15:42.438Z,97968.30
2022-12-17T15:18:11.796Z,97973.48
2022-12-17T15:20:40.026Z,97979.83
2022-12-17T15:23:15.786Z,97987.17
2022-12-17T15:25:47.002Z,97998.27
2022-12-17T15:28:17.095Z,98002.98
2022-12-17T15:30:46.038Z,98008.55
2022-12-17T15:33:14.327Z,98012.34
2022-12-17T15:35:43.042Z,98011.86
2022-12-17T15:38:12.926Z,98011.80
2022-12-17T15:40:41.520Z,98021.88
2022-12-17T15:43:13.106Z,98036.09
2022-12-17T15:45:49.876Z,98046.16
2022-12-17T15:48:23.476Z,98055.58
2022-12-17T15:50:51.528Z,98061.69
2022-12-17T15:53:19.702Z,98066.59
2022-12-17T15:55:47.874Z,98069.67
2022-12-17T15:58:16.401Z,98072.15
2022-12-17T16:00:44.594Z,98075.55
2022-12-17T16:03:12.808Z,98081.96
2022-12-17T16:05:40.873Z,98093.66
2022-12-17T16:08:08.908Z,98098.30
2022-12-17T16:10:39.252Z,98095.58
2022-12-17T16:13:07.286Z,98094.91
2022-12-17T16:15:35.506Z,98096.44
2022-12-17T16:18:03.602Z,98102.25
2022-12-17T16:20:32.154Z,98104.30
2022-12-17T16:23:01.269Z,98104.19
2022-12-17T16:25:29.508Z,98108.73
2022-12-17T16:27:57.655Z,98119.95
2022-12-17T16:30:25.704Z,98124.83
2022-12-17T16:32:53.752Z,98126.91
2022-12-17T16:35:23.760Z,98132.43
2022-12-17T16:37:51.928Z,98131.74
2022-12-17T16:40:20.843Z,98129.29
2022-12-17T16:42:49.099Z,98138.05
2022-12-17T16:45:17.230Z,98144.58
2022-12-17T16:47:45.339Z,98144.63
2022-12-17T16:50:15.436Z,98144.46
2022-12-17T16:52:43.609Z,98143.77
2022-12-17T16:55:11.831Z,98151.89
2022-12-17T16:57:40.795Z,98153.34
2022-12-17T17:00:09.711Z,98154.98
2022-12-17T17:02:37.971Z,98160.95
2022-12-17T17:05:06.427Z,98166.11
2022-12-17T17:07:34.500Z,98171.44
2022-12-17T17:10:02.989Z,98173.80
2022-12-17T17:12:31.161Z,98178.24
2022-12-17T17:14:59.252Z,98180.38
2022-12-17T17:17:54.893Z,98180.73
2022-12-17T17:20:16.011Z,98182.45
2022-12-17T17:22:44.220Z,98182.39
2022-12-17T17:25:12.398Z,98182.77
2022-12-17T17:27:40.550Z,98185.02
2022-12-17T17:30:09.294Z,98188.85
2022-12-17T17:32:37.444Z,98191.91
2022-12-17T17:35:06.086Z,98197.14
2022-12-17T17:37:34.221Z,98198.08
2022-12-17T17:40:02.379Z,98204.48
2022-12-17T17:42:30.473Z,98210.88
2022-12-17T17:44:58.593Z,98216.52
2022-12-17T17:47:26.799Z,98217.14
2022-12-17T17:49:54.949Z,98215.49
2022-12-17T17:52:22.993Z,98215.94
2022-12-17T17:54:51.050Z,98222.79
2022-12-17T17:57:19.140Z,98224.88
2022-12-17T17:59:47.160Z,98223.63
2022-12-17T18:02:15.378Z,98224.90
2022-12-17T18:04:43.650Z,98232.05
2022-12-17T18:07:28.098Z,98236.73
2022-12-17T18:09:56.649Z,98247.92
2022-12-17T18:12:43.250Z,98250.34
2022-12-17T18:15:14.714Z,98253.23
2022-12-17T18:17:46.257Z,98259.27
2022-12-17T18:20:14.632Z,98262.06
2022-12-17T18:22:46.102Z,98265.54
2022-12-17T18:25:16.573Z,98269.04
2022-12-17T18:27:45.186Z,98268.10
2022-12-17T18:30:16.336Z,98277.50
2022-12-17T18:32:51.067Z,98283.96
2022-12-17T18:35:19.267Z,98298.60
2022-12-17T18:37:48.588Z,98307.73
2022-12-17T18:40:16.756Z,98318.65
2022-12-17T18:43:04.302Z,98325.65
2022-12-17T18:45:38.259Z,98339.61
2022-12-17T18:48:06.608Z,98347.97
2022-12-17T18:50:34.930Z,98350.99
2022-12-17T18:53:02.984Z,98355.26
2022-12-17T18:55:31.176Z,98357.67
2022-12-17T18:58:01.340Z,98367.48
2022-12-17T19:00:29.469Z,98376.70
2022-12-17T19:02:57.619Z,98378.10
2022-12-17T19:05:25.868Z,98385.73
2022-12-17T19:07:53.918Z,98387.19
2022-12-17T19:10:22.925Z,98390.92
2022-12-17T19:12:51.080Z,98397.64
2022-12-17T19:15:19.315Z,98398.89
2022-12-17T19:17:50.959Z,98401.11
2022-12-17T19:20:19.090Z,98407.80
2022-12-17T19:22:47.108Z,98410.04
2022-12-17T19:25:15.187Z,98414.17
2022-12-17T19:27:43.363Z,98412.02
2022-12-17T19:30:11.838Z,98422.05
2022-12-17T19:32:39.956Z,98418.70
2022-12-17T19:35:08.299Z,98409.92
2022-12-17T19:37:36.804Z,98419.86
2022-12-17T19:40:05.390Z,98423.58
2022-12-17T19:42:37.455Z,98430.92
2022-12-17T19:45:11.454Z,98443.28
2022-12-17T19:47:39.567Z,98446.87
2022-12-17T19:50:07.716Z,98451.70
2022-12-17T19:52:35.812Z,98459.36
2022-12-17T19:55:04.467Z,98459.79
2022-12-17T19:57:34.483Z,98462.53
2022-12-17T20:00:02.684Z,98462.94
2022-12-17T20:02:45.610Z,98465.76
2022-12-17T20:05:13.765Z,98466.19
2022-12-17T20:07:41.816Z,98468.64
2022-12-17T20:10:09.810Z,98469.20
2022-12-17T20:12:37.941Z,98476.63
2022-12-17T20:15:06.430Z,98488.34
2022-12-17T20:17:34.467Z,98488.23
2022-12-17T20:20:02.624Z,98486.70
2022-12-17T20:22:30.791Z,98495.45
2022-12-17T20:25:01.536Z,98498.25
2022-12-17T20:27:30.028Z,98497.46
2022-12-17T20:29:57.983Z,98494.95
2022-12-17T20:32:25.972Z,98499.33
2022-12-17T20:34:54.098Z,98496.55
2022-12-17T20:37:22.099Z,98502.88
2022-12-17T20:39:50.141Z,98512.48
2022-12-17T20:42:18.335Z,98516.21
2022-12-17T20:44:51.585Z,98520.56
2022-12-17T20:47:21.864Z,98523.34
2022-12-17T20:49:52.601Z,98528.52
2022-12-17T20:52:20.629Z,98537.96
2022-12-17T20:54:49.444Z,98540.06
2022-12-17T20:57:17.521Z,98545.54
2022-12-17T20:59:46.939Z,98554.48
2022-12-17T21:02:15.249Z,98562.63
2022-12-17T21:04:43.439Z,98569.85
2022-12-17T21:07:11.535Z,98581.64
2022-12-17T21:09:39.521Z,98587.50
2022-12-17T21:12:07.758Z,98597.87
2022-12-17T21:14:36.149Z,98596.88
2022-12-17T21:17:05.172Z,98604.90
2022-12-17T21:19:33.542Z,98608.14
2022-12-17T21:22:02.369Z,98609.27
2022-12-17T21:24:30.355Z,98613.76
2022-12-17T21:27:00.390Z,98624.79
2022-12-17T21:29:33.360Z,98630.70
2022-12-17T21:32:03.064Z,98632.97
2022-12-17T21:34:32.543Z,98627.19
2022-12-17T21:37:00.572Z,98629.39
2022-12-17T21:39:28.894Z,98628.10
2022-12-17T21:42:15.432Z,98632.52
2022-12-17T21:44:43.557Z,98641.18
2022-12-17T21:47:11.884Z,98637.15
2022-12-17T21:49:40.601Z,98638.77
2022-12-17T21:52:08.757Z,98642.99
2022-12-17T21:54:39.533Z,98646.27
2022-12-17T21:57:08.362Z,98653.59
2022-12-17T21:59:36.375Z,98656.03
2022-12-17T22:02:07.379Z,98658.42
2022-12-17T22:04:35.807Z,98653.24
2022-12-17T22:07:09.326Z,98660.91
2022-12-17T22:10:14.798Z,98667.54
2022-12-17T22:12:58.099Z,98677.20
2022-12-17T22:15:30.685Z,98676.96
2022-12-17T22:18:01.984Z,98679.20
2022-12-17T22:20:32.937Z,98685.34
2022-12-17T22:23:01.104Z,98685.94
2022-12-17T22:25:29.209Z,98684.15
2022-12-17T22:27:57.356Z,98687.33
2022-12-17T22:30:43.910Z,98694.40
2022-12-17T22:33:37.380Z,98706.28
2022-12-17T22:38:04.246Z,98718.50
2022-12-17T22:44:20.073Z,98718.81
2022-12-17T22:44:36.965Z,98726.67
2022-12-17T22:44:53.471Z,98728.90
2022-12-17T22:47:23.487Z,98733.08
2022-12-17T22:49:51.625Z,98736.06
2022-12-17T22:52:21.277Z,98742.59
2022-12-17T22:54:57.097Z,98747.23
2022-12-17T22:57:36.332Z,98752.33
2022-12-17T23:00:17.090Z,98756.70
2022-12-17T23:02:45.231Z,98756.20
2022-12-17T23:05:14.859Z,98755.82
2022-12-17T23:07:42.891Z,98758.02
2022-12-17T23:10:11.001Z,98754.58
2022-12-17T23:12:51.218Z,98758.91
2022-12-17T23:15:27.314Z,98763.89
2022-12-17T23:17:58.132Z,98769.24
2022-12-17T23:20:28.480Z,98770.71
2022-12-17T23:22:56.646Z,98776.56
2022-12-17T23:25:26.148Z,98775.61
2022-12-17T23:27:54.473Z,98775.27
2022-12-17T23:30:22.672Z,98779.48
2022-12-17T23:32:51.979Z,98785.46
2022-12-17T23:35:20.858Z,98785.84
2022-12-17T23:37:49.687Z,98787.73
2022-12-17T23:40:20.317Z,98791.67
2022-12-17T23:42:48.337Z,98796.63
2022-12-17T23:45:16.609Z,98800.04
2022-12-17T23:47:44.603Z,98802.98
2022-12-17T23:50:12.641Z,98803.56
2022-12-17T23:52:40.720Z,98809.43
2022-12-17T23:55:09.133Z,98813.55
2022-12-17T23:57:37.948Z,98816.82
